HomeShort term forecast

Short term forecast

Graphical weather forecast for the next 48 hours for Montreal:
Short term forecast
This weather forecast is automatically refreshed every 3 hours.

Hourly Experimental Forecast for the next 48 hours

Overall summary: Mostly cloudy starting tonight.

 Date & Hour   Temp   Feel   Baro   Hum   Speed & Bearing   Wind Gust   Precip.%   Precip.   Visibility   Cloud cover   Conditions 
 18/10/2018 - 09:00  0.2°C  -5.0°C  1024.1 hPa  57%  20.0 km/h   33.6 km/h  0%  --  16.1km  36%  Partly Cloudy 
 18/10/2018 - 10:00  1.0°C  -4.3°C  1024.5 hPa  53%  22.1 km/h   34.0 km/h  0%  --  16.1km  12%  Clear 
 18/10/2018 - 11:00  1.8°C  -3.3°C  1024.7 hPa  49%  23.3 km/h   33.7 km/h  5%  0.06 mm/h  16.1km  17%  Clear 
 18/10/2018 - 12:00  2.8°C  -2.2°C  1024.7 hPa  45%  23.7 km/h   34.7 km/h  4%  0.04 mm/h  16.1km  16%  Clear 
 18/10/2018 - 13:00  3.7°C  -1.1°C  1024.5 hPa  41%  23.9 km/h   35.6 km/h  0%  --  16.1km  5%  Clear 
 18/10/2018 - 14:00  4.2°C  -0.4°C  1024.2 hPa  39%  23.5 km/h   36.7 km/h  0%  --  16.1km  7%  Clear 
 18/10/2018 - 15:00  4.5°C  0.0°C  1023.9 hPa  38%  23.6 km/h   36.8 km/h  3%  0.03 mm/h  16.1km  21%  Clear 
 18/10/2018 - 16:00  4.3°C  -0.1°C  1023.7 hPa  39%  23.4 km/h   36.7 km/h  2%  0.01 mm/h  16.1km  24%  Clear 
 18/10/2018 - 17:00  4.2°C  -0.1°C  1023.6 hPa  40%  22.2 km/h   34.6 km/h  0%  --  16.1km  22%  Clear 
 18/10/2018 - 18:00  3.8°C  -0.4°C  1023.7 hPa  41%  19.4 km/h   35.0 km/h  2%  0.01 mm/h  16.1km  3%  Clear 
 18/10/2018 - 19:00  3.0°C  -0.8°C  1023.7 hPa  44%  15.9 km/h   35.3 km/h  0%  --  16.1km  4%  Clear 
 18/10/2018 - 20:00  2.4°C  -1.0°C  1023.7 hPa  47%  12.4 km/h   33.8 km/h  0%  --  16.1km  16%  Clear 
 18/10/2018 - 21:00  2.1°C  -0.9°C  1023.8 hPa  48%  10.5 km/h   29.6 km/h  0%  --  16.1km  19%  Clear 
 18/10/2018 - 22:00  2.5°C  -0.2°C  1023.5 hPa  47%  9.8 km/h   23.4 km/h  0%  --  16.1km  68%  Mostly Cloudy 
 18/10/2018 - 23:00  2.8°C  0.2°C  1023.1 hPa  48%  9.2 km/h   20.7 km/h  0%  --  16.1km  96%  Overcast 
 19/10/2018 - 00:00  2.8°C  0.2°C  1022.4 hPa  51%  9.5 km/h   25.0 km/h  0%  --  16.1km  89%  Mostly Cloudy 
 19/10/2018 - 01:00  2.8°C  -0.1°C  1021.7 hPa  55%  10.5 km/h   32.9 km/h  0%  --  16.1km  96%  Overcast 
 19/10/2018 - 02:00  2.9°C  -0.2°C  1020.9 hPa  59%  11.2 km/h   39.2 km/h  0%  --  16.1km  96%  Overcast 
 19/10/2018 - 03:00  3.1°C  0.0°C  1019.9 hPa  63%  11.8 km/h   42.3 km/h  1%  0.01 mm/h  16.1km  95%  Overcast 
 19/10/2018 - 04:00  3.3°C  0.1°C  1018.9 hPa  67%  12.6 km/h   44.0 km/h  2%  0.01 mm/h  16.1km  93%  Mostly Cloudy 
 19/10/2018 - 05:00  3.4°C  0.0°C  1018.1 hPa  71%  13.4 km/h   44.5 km/h  2%  0.01 mm/h  16.1km  89%  Mostly Cloudy 
 19/10/2018 - 06:00  3.2°C  -0.3°C  1017.5 hPa  75%  13.7 km/h   43.6 km/h  0%  --  16.1km  76%  Mostly Cloudy 
 19/10/2018 - 07:00  3.2°C  -0.1°C  1017.1 hPa  76%  13.4 km/h   41.7 km/h  0%  --  16.1km  70%  Mostly Cloudy 
 19/10/2018 - 08:00  3.9°C  0.6°C  1016.7 hPa  75%  14.3 km/h   40.5 km/h  0%  --  16.1km  71%  Mostly Cloudy 
 19/10/2018 - 09:00  5.1°C  1.7°C  1015.9 hPa  75%  16.3 km/h   40.6 km/h  0%  --  16.1km  52%  Partly Cloudy 
 19/10/2018 - 10:00  7.2°C  3.8°C  1015.2 hPa  72%  20.2 km/h   41.2 km/h  0%  --  16.1km  44%  Partly Cloudy 
 19/10/2018 - 11:00  9.2°C  6.0°C  1014.4 hPa  69%  23.6 km/h   41.9 km/h  2%  0.01 mm/h  16.1km  38%  Partly Cloudy 
 19/10/2018 - 12:00  10.7°C  10.7°C  1013.3 hPa  67%  25.6 km/h   42.3 km/h  2%  0.01 mm/h  16.1km  36%  Partly Cloudy 
 19/10/2018 - 13:00  12.0°C  12.0°C  1012.1 hPa  66%  26.8 km/h   42.8 km/h  2%  0.01 mm/h  16.1km  36%  Partly Cloudy 
 19/10/2018 - 14:00  13.4°C  13.4°C  1011.0 hPa  63%  27.4 km/h   43.6 km/h  2%  0.01 mm/h  16.1km  38%  Breezy and Partly Cloudy 
 19/10/2018 - 15:00  14.4°C  14.4°C  1010.0 hPa  62%  27.3 km/h   44.6 km/h  0%  --  16.1km  44%  Partly Cloudy 
 19/10/2018 - 16:00  15.0°C  15.0°C  1009.0 hPa  62%  26.5 km/h   45.8 km/h  0%  --  16.1km  53%  Partly Cloudy 
 19/10/2018 - 17:00  15.0°C  15.0°C  1008.2 hPa  63%  25.7 km/h   47.8 km/h  0%  --  16.1km  58%  Partly Cloudy 
 19/10/2018 - 18:00  14.5°C  14.5°C  1007.7 hPa  65%  25.1 km/h   51.1 km/h  0%  --  16.1km  67%  Mostly Cloudy 
 19/10/2018 - 19:00  13.2°C  13.2°C  1007.4 hPa  69%  24.5 km/h   55.2 km/h  0%  --  16.1km  77%  Mostly Cloudy 
 19/10/2018 - 20:00  12.4°C  12.4°C  1006.9 hPa  71%  24.3 km/h   58.2 km/h  0%  --  16.1km  85%  Mostly Cloudy 
 19/10/2018 - 21:00  12.2°C  12.2°C  1006.1 hPa  71%  24.5 km/h   59.8 km/h  6%  0.01 mm/h  16.1km  91%  Mostly Cloudy 
 19/10/2018 - 22:00  12.2°C  12.2°C  1005.2 hPa  70%  25.2 km/h   60.5 km/h  10%  0.04 mm/h  16.1km  97%  Breezy and Overcast 
 19/10/2018 - 23:00  12.0°C  12.0°C  1004.2 hPa  70%  25.8 km/h   60.3 km/h  15%  0.09 mm/h  16.1km  100%  Breezy and Overcast 
 20/10/2018 - 00:00  11.7°C  11.7°C  1003.4 hPa  70%  26.0 km/h   58.6 km/h  19%  0.12 mm/h  16.1km  100%  Breezy and Overcast 
 20/10/2018 - 01:00  11.3°C  11.3°C  1002.5 hPa  70%  26.2 km/h   55.8 km/h  21%  0.16 mm/h  16.1km  100%  Breezy and Overcast 
 20/10/2018 - 02:00  11.0°C  11.0°C  1001.6 hPa  70%  26.4 km/h   53.7 km/h  26%  0.19 mm/h  16.1km  100%  Breezy and Overcast 
 20/10/2018 - 03:00  10.6°C  10.6°C  1000.6 hPa  69%  26.9 km/h   53.0 km/h  25%  0.18 mm/h  16.1km  100%  Breezy and Overcast 
 20/10/2018 - 04:00  10.1°C  10.1°C  999.6 hPa  68%  27.5 km/h   52.9 km/h  25%  0.17 mm/h  16.1km  100%  Breezy and Overcast 
 20/10/2018 - 05:00  9.5°C  6.1°C  998.7 hPa  69%  27.9 km/h   53.0 km/h  27%  0.17 mm/h  16.1km  100%  Breezy and Overcast 
 20/10/2018 - 06:00  8.6°C  4.9°C  998.1 hPa  74%  28.1 km/h   53.5 km/h  34%  0.24 mm/h  16.1km  100%  Breezy and Overcast 
 20/10/2018 - 07:00  8.4°C  4.7°C  997.6 hPa  77%  28.1 km/h   54.1 km/h  42%  0.39 mm/h  16.1km  100%  Breezy and Overcast 
 20/10/2018 - 08:00  8.3°C  4.4°C  997.4 hPa  81%  28.3 km/h   54.4 km/h  47%  0.48 mm/h  16.0km  100%  Breezy and Overcast 
Test

 

Past weather and reports

Past weatherFind in this section the past weather conditions, weather archive, graphics, reports and statistics.

Current conditions

Current weather condition for MontrealAll you need to know about the current weather conditions for Montreal. Weather data is updated every 10 minutes.

Weather forecast

Current Montreal weatherSince 2004, celinium.com website has provided accurate weather forecast for Montreal's island.